N931CD KBNA-KXNX
Flight info
| Callsign | N931CD |
|---|---|
| Flight time | N/A |
| Altitude | VFR |
| Route | BNA XNX |
| Aircraft | BE58/L-DOV/C |
Departure
| Time | 2026-05-08 00:14 |
|---|---|
| Airport | Nashville International Airport (KBNA) |
Arrival
| Time | N/A |
|---|---|
| Airport | Music City Executive Airport (KXNX) |
| Time | Latitude | Longitude | Altitude | Speed | Heading |
|---|---|---|---|---|---|
| 2026-05-08 00:14 | 36.14053 | -86.65754 | 993 ft | 124 kts | 14° |
| 2026-05-08 00:14 | 36.14902 | -86.65396 | 1251 ft | 133 kts | 17° |
| 2026-05-08 00:15 | 36.15795 | -86.65017 | 1533 ft | 139 kts | 17° |
| 2026-05-08 00:15 | 36.16707 | -86.64589 | 1802 ft | 142 kts | 31° |
| 2026-05-08 00:15 | 36.17260 | -86.63594 | 2051 ft | 146 kts | 63° |
| 2026-05-08 00:15 | 36.17832 | -86.62582 | 2308 ft | 143 kts | 40° |
| 2026-05-08 00:16 | 36.18571 | -86.61752 | 2567 ft | 144 kts | 39° |
| 2026-05-08 00:16 | 36.19312 | -86.60921 | 2813 ft | 143 kts | 39° |
| 2026-05-08 00:16 | 36.20050 | -86.60113 | 3070 ft | 142 kts | 38° |
| 2026-05-08 00:16 | 36.20787 | -86.59305 | 3322 ft | 141 kts | 38° |
| 2026-05-08 00:17 | 36.21536 | -86.58497 | 3496 ft | 147 kts | 37° |
| 2026-05-08 00:17 | 36.22089 | -86.57384 | 3507 ft | 165 kts | 79° |
| 2026-05-08 00:17 | 36.21839 | -86.55965 | 3513 ft | 175 kts | 113° |
| 2026-05-08 00:17 | 36.21298 | -86.54597 | 3511 ft | 178 kts | 113° |
| 2026-05-08 00:18 | 36.20802 | -86.53186 | 3513 ft | 180 kts | 110° |
| 2026-05-08 00:18 | 36.20345 | -86.51738 | 3507 ft | 181 kts | 108° |
| 2026-05-08 00:18 | 36.19889 | -86.50284 | 3512 ft | 181 kts | 109° |
| 2026-05-08 00:18 | 36.19431 | -86.48829 | 3512 ft | 181 kts | 109° |
| 2026-05-08 00:19 | 36.18970 | -86.47369 | 3508 ft | 183 kts | 109° |
| 2026-05-08 00:19 | 36.18511 | -86.45904 | 3509 ft | 182 kts | 109° |
| 2026-05-08 00:19 | 36.18051 | -86.44445 | 3509 ft | 182 kts | 109° |
| 2026-05-08 00:19 | 36.17589 | -86.42988 | 3509 ft | 182 kts | 109° |
| 2026-05-08 00:20 | 36.17324 | -86.41471 | 3378 ft | 180 kts | 86° |
| 2026-05-08 00:20 | 36.17563 | -86.39976 | 3215 ft | 176 kts | 64° |
| 2026-05-08 00:20 | 36.18220 | -86.38742 | 3021 ft | 170 kts | 43° |
| 2026-05-08 00:20 | 36.19177 | -86.37915 | 2821 ft | 167 kts | 22° |
| 2026-05-08 00:21 | 36.20295 | -86.37577 | 2619 ft | 166 kts | 1° |
| 2026-05-08 00:21 | 36.21425 | -86.37727 | 2506 ft | 160 kts | 349° |
| 2026-05-08 00:21 | 36.22505 | -86.37936 | 2502 ft | 155 kts | 351° |
| 2026-05-08 00:21 | 36.23566 | -86.38134 | 2492 ft | 155 kts | 351° |
| 2026-05-08 00:22 | 36.24610 | -86.38336 | 2490 ft | 153 kts | 351° |
| 2026-05-08 00:22 | 36.25671 | -86.38541 | 2495 ft | 153 kts | 351° |
| 2026-05-08 00:22 | 36.26717 | -86.38745 | 2486 ft | 152 kts | 351° |
| 2026-05-08 00:22 | 36.27733 | -86.38942 | 2340 ft | 139 kts | 351° |
| 2026-05-08 00:23 | 36.28642 | -86.39119 | 2163 ft | 127 kts | 351° |
| 2026-05-08 00:23 | 36.29488 | -86.39283 | 1998 ft | 123 kts | 351° |
| 2026-05-08 00:23 | 36.30325 | -86.39445 | 1834 ft | 121 kts | 351° |
| 2026-05-08 00:23 | 36.31150 | -86.39606 | 1669 ft | 119 kts | 351° |
| 2026-05-08 00:24 | 36.31975 | -86.39765 | 1497 ft | 120 kts | 350° |
| 2026-05-08 00:24 | 36.32795 | -86.39925 | 1342 ft | 120 kts | 350° |
| 2026-05-08 00:24 | 36.33630 | -86.40088 | 1173 ft | 122 kts | 350° |
| 2026-05-08 00:24 | 36.34469 | -86.40250 | 1001 ft | 120 kts | 350° |
| 2026-05-08 00:25 | 36.35289 | -86.40409 | 842 ft | 112 kts | 349° |
| 2026-05-08 00:25 | 36.35976 | -86.40546 | 696 ft | 95 kts | 349° |
| 2026-05-08 00:25 | 36.36606 | -86.40670 | 586 ft | 90 kts | 351° |
| 2026-05-08 00:25 | 36.37199 | -86.40783 | 555 ft | 80 kts | 351° |
| 2026-05-08 00:26 | 36.37755 | -86.40891 | 569 ft | 86 kts | 351° |
| 2026-05-08 00:26 | 36.38363 | -86.41003 | 700 ft | 101 kts | 350° |
| 2026-05-08 00:26 | 36.39086 | -86.41192 | 1059 ft | 113 kts | 350° |
| 2026-05-08 00:26 | 36.39941 | -86.41313 | 1324 ft | 134 kts | 353° |
| 2026-05-08 00:27 | 36.40914 | -86.41465 | 1608 ft | 145 kts | 353° |
| 2026-05-08 00:27 | 36.41932 | -86.41629 | 1885 ft | 149 kts | 353° |
| 2026-05-08 00:27 | 36.42957 | -86.41802 | 2147 ft | 149 kts | 352° |
| 2026-05-08 00:27 | 36.43982 | -86.41968 | 2400 ft | 149 kts | 352° |
| 2026-05-08 00:28 | 36.45017 | -86.42126 | 2655 ft | 150 kts | 352° |
| 2026-05-08 00:28 | 36.46059 | -86.42279 | 2908 ft | 151 kts | 353° |
| 2026-05-08 00:28 | 36.47101 | -86.42440 | 3161 ft | 151 kts | 352° |
| 2026-05-08 00:28 | 36.48052 | -86.42892 | 3419 ft | 150 kts | 316° |
| 2026-05-08 00:29 | 36.48417 | -86.44126 | 3510 ft | 166 kts | 269° |
| 2026-05-08 00:29 | 36.48011 | -86.45496 | 3517 ft | 175 kts | 239° |
| 2026-05-08 00:29 | 36.47378 | -86.46800 | 3522 ft | 177 kts | 245° |
| 2026-05-08 00:29 | 36.46850 | -86.48188 | 3512 ft | 179 kts | 242° |
| 2026-05-08 00:30 | 36.45903 | -86.49182 | 3516 ft | 183 kts | 206° |
| 2026-05-08 00:30 | 36.44729 | -86.49761 | 3516 ft | 185 kts | 204° |
| 2026-05-08 00:30 | 36.43540 | -86.50414 | 3519 ft | 191 kts | 207° |
| 2026-05-08 00:30 | 36.42325 | -86.51149 | 3521 ft | 197 kts | 208° |
| 2026-05-08 00:31 | 36.41090 | -86.51903 | 3517 ft | 198 kts | 207° |
| 2026-05-08 00:31 | 36.39849 | -86.52657 | 3514 ft | 199 kts | 208° |
| 2026-05-08 00:31 | 36.38609 | -86.53409 | 3516 ft | 198 kts | 207° |
| 2026-05-08 00:31 | 36.37371 | -86.54161 | 3510 ft | 198 kts | 207° |
| 2026-05-08 00:32 | 36.36131 | -86.54913 | 3515 ft | 199 kts | 208° |
| 2026-05-08 00:32 | 36.34887 | -86.55667 | 3514 ft | 200 kts | 207° |
| 2026-05-08 00:32 | 36.33636 | -86.56425 | 3515 ft | 200 kts | 207° |
| 2026-05-08 00:32 | 36.32403 | -86.57172 | 3638 ft | 195 kts | 207° |
| 2026-05-08 00:33 | 36.31191 | -86.57906 | 3761 ft | 193 kts | 207° |
| 2026-05-08 00:33 | 36.29990 | -86.58633 | 3880 ft | 192 kts | 207° |
| 2026-05-08 00:33 | 36.28794 | -86.59358 | 4008 ft | 191 kts | 208° |
| 2026-05-08 00:33 | 36.27597 | -86.60082 | 4114 ft | 192 kts | 207° |
| 2026-05-08 00:34 | 36.26399 | -86.60807 | 4238 ft | 192 kts | 207° |
| 2026-05-08 00:34 | 36.25200 | -86.61532 | 4368 ft | 191 kts | 207° |
| 2026-05-08 00:34 | 36.24004 | -86.62255 | 4479 ft | 192 kts | 207° |
| 2026-05-08 00:34 | 36.22792 | -86.62988 | 4477 ft | 195 kts | 207° |
| 2026-05-08 00:35 | 36.21563 | -86.63731 | 4481 ft | 197 kts | 207° |
| 2026-05-08 00:35 | 36.20328 | -86.64476 | 4484 ft | 198 kts | 208° |
| 2026-05-08 00:35 | 36.19088 | -86.65224 | 4482 ft | 199 kts | 207° |
| 2026-05-08 00:35 | 36.17845 | -86.65974 | 4485 ft | 199 kts | 207° |
| 2026-05-08 00:36 | 36.16602 | -86.66724 | 4487 ft | 199 kts | 207° |
| 2026-05-08 00:36 | 36.15464 | -86.67660 | 4485 ft | 196 kts | 227° |
| 2026-05-08 00:36 | 36.14705 | -86.69034 | 4481 ft | 193 kts | 249° |
| 2026-05-08 00:36 | 36.14396 | -86.70627 | 4482 ft | 190 kts | 269° |
| 2026-05-08 00:37 | 36.14547 | -86.72213 | 4283 ft | 185 kts | 288° |
| 2026-05-08 00:37 | 36.14906 | -86.73724 | 4078 ft | 182 kts | 288° |
| 2026-05-08 00:37 | 36.15248 | -86.75246 | 3872 ft | 181 kts | 288° |
| 2026-05-08 00:38 | 36.16791 | -86.77419 | 3470 ft | 177 kts | 338° |
| 2026-05-08 00:38 | 36.17914 | -86.78083 | 3257 ft | 177 kts | 333° |
| 2026-05-08 00:38 | 36.18989 | -86.78786 | 3052 ft | 177 kts | 333° |
| 2026-05-08 00:38 | 36.20079 | -86.79496 | 2853 ft | 176 kts | 333° |
| 2026-05-08 00:39 | 36.21134 | -86.80185 | 2639 ft | 168 kts | 333° |
| 2026-05-08 00:39 | 36.22160 | -86.80864 | 2467 ft | 164 kts | 333° |
| 2026-05-08 00:39 | 36.23143 | -86.81512 | 2460 ft | 157 kts | 333° |
| 2026-05-08 00:39 | 36.24124 | -86.82028 | 2451 ft | 152 kts | 354° |
| 2026-05-08 00:40 | 36.25149 | -86.81796 | 2462 ft | 151 kts | 15° |